createdAt,value
2018-12-21T00:01:25.931Z,21.27
2018-12-21T00:03:52.213Z,22.55
2018-12-21T00:06:18.518Z,22.15
2018-12-21T00:08:44.804Z,22.27
2018-12-21T00:11:11.100Z,20.68
2018-12-21T00:13:37.442Z,20.72
2018-12-21T00:16:03.715Z,21.02
2018-12-21T00:18:29.970Z,19.65
2018-12-21T00:20:56.206Z,20.60
2018-12-21T00:23:22.515Z,20.57
2018-12-21T00:25:48.778Z,20.88
2018-12-21T00:28:15.035Z,21.02
2018-12-21T00:30:41.365Z,19.55
2018-12-21T00:33:13.917Z,20.37
2018-12-21T00:35:46.322Z,20.92
2018-12-21T00:38:19.531Z,19.90
2018-12-21T00:40:51.930Z,23.57
2018-12-21T00:43:23.334Z,21.62
2018-12-21T00:45:51.647Z,20.37
2018-12-21T00:48:17.911Z,21.75
2018-12-21T00:50:44.178Z,21.70
2018-12-21T00:53:10.436Z,20.52
2018-12-21T00:55:36.801Z,21.17
2018-12-21T00:58:03.102Z,23.20
2018-12-21T01:00:29.431Z,20.12
2018-12-21T01:02:55.718Z,21.25
2018-12-21T01:05:22.100Z,22.80
2018-12-21T01:07:48.601Z,22.27
2018-12-21T01:10:15.014Z,20.60
2018-12-21T01:12:41.292Z,21.52
2018-12-21T01:15:07.649Z,20.88
2018-12-21T01:17:33.921Z,21.17
2018-12-21T01:20:00.201Z,21.30
2018-12-21T01:22:26.510Z,21.55
2018-12-21T01:24:52.771Z,22.62
2018-12-21T01:27:19.267Z,19.98
2018-12-21T01:29:45.779Z,21.37
2018-12-21T01:32:12.419Z,19.75
2018-12-21T01:34:38.728Z,19.90
2018-12-21T01:37:05.028Z,21.07
2018-12-21T01:39:32.889Z,20.23
2018-12-21T01:41:59.118Z,21.15
2018-12-21T01:44:25.383Z,20.90
2018-12-21T01:46:51.656Z,19.95
2018-12-21T01:49:17.923Z,21.80
2018-12-21T01:51:47.222Z,18.40
2018-12-21T01:54:12.514Z,19.42
2018-12-21T01:56:38.774Z,21.10
2018-12-21T01:59:05.038Z,19.50
2018-12-21T02:01:31.334Z,17.10
2018-12-21T02:03:57.594Z,17.75
2018-12-21T02:06:23.980Z,17.70
2018-12-21T02:08:50.263Z,19.07
2018-12-21T02:11:16.515Z,19.10
2018-12-21T02:13:42.783Z,18.02
2018-12-21T02:16:09.038Z,17.42
2018-12-21T02:18:35.306Z,17.60
2018-12-21T02:21:01.577Z,17.67
2018-12-21T02:23:27.869Z,19.40
2018-12-21T02:25:54.189Z,17.20
2018-12-21T02:28:20.430Z,16.95
2018-12-21T02:30:46.735Z,16.17
2018-12-21T02:33:12.998Z,16.87
2018-12-21T02:35:39.288Z,18.00
2018-12-21T02:38:05.568Z,17.52
2018-12-21T02:40:31.806Z,18.02
2018-12-21T02:42:58.053Z,16.57
2018-12-21T02:45:24.359Z,17.23
2018-12-21T02:47:50.631Z,18.65
2018-12-21T02:50:16.877Z,18.02
2018-12-21T02:52:43.148Z,17.87
2018-12-21T02:55:09.422Z,18.23
2018-12-21T02:57:35.700Z,18.00
2018-12-21T03:00:02.279Z,18.48
2018-12-21T03:02:28.536Z,17.52
2018-12-21T03:04:54.803Z,17.70
2018-12-21T03:07:21.104Z,18.05
2018-12-21T03:09:47.342Z,16.52
2018-12-21T03:12:13.596Z,16.50
2018-12-21T03:14:39.900Z,15.98
2018-12-21T03:17:06.281Z,16.82
2018-12-21T03:19:32.639Z,15.93
2018-12-21T03:21:58.932Z,17.67
2018-12-21T03:24:25.220Z,17.10
2018-12-21T03:26:51.521Z,14.90
2018-12-21T03:29:17.803Z,14.63
2018-12-21T03:31:44.073Z,15.48
2018-12-21T03:34:10.340Z,14.85
2018-12-21T03:36:36.703Z,17.67
2018-12-21T03:39:05.831Z,15.60
2018-12-21T03:41:32.244Z,15.95
2018-12-21T03:43:58.631Z,15.55
2018-12-21T03:46:24.915Z,16.50
2018-12-21T03:48:51.251Z,14.23
2018-12-21T03:51:17.528Z,16.80
2018-12-21T03:53:43.786Z,15.38
2018-12-21T03:56:10.095Z,15.35
2018-12-21T03:58:36.339Z,16.55
2018-12-21T04:01:02.615Z,16.90
2018-12-21T04:03:28.892Z,15.85
2018-12-21T04:05:55.166Z,15.65
2018-12-21T04:08:21.456Z,16.10
2018-12-21T04:10:47.703Z,14.58
2018-12-21T04:13:13.947Z,15.48
2018-12-21T04:15:40.252Z,15.00
2018-12-21T04:18:06.499Z,14.38
2018-12-21T04:20:32.824Z,14.78
2018-12-21T04:22:59.123Z,15.30
2018-12-21T04:25:25.397Z,15.40
2018-12-21T04:27:51.648Z,15.28
2018-12-21T04:30:17.978Z,15.50
2018-12-21T04:32:44.334Z,15.38
2018-12-21T04:35:10.598Z,14.50
2018-12-21T04:37:36.906Z,15.15
2018-12-21T04:40:04.209Z,14.38
2018-12-21T04:42:30.644Z,14.75
2018-12-21T04:44:56.918Z,13.50
2018-12-21T04:47:23.181Z,14.35
2018-12-21T04:49:49.453Z,15.35
2018-12-21T04:52:15.761Z,12.95
2018-12-21T04:54:42.023Z,14.98
2018-12-21T04:57:08.322Z,15.00
2018-12-21T04:59:41.568Z,14.55
2018-12-21T05:02:07.877Z,13.90
2018-12-21T05:04:34.127Z,13.40
2018-12-21T05:07:00.377Z,15.00
2018-12-21T05:09:26.646Z,15.65
2018-12-21T05:11:53.054Z,13.98
2018-12-21T05:14:19.320Z,14.65
2018-12-21T05:16:45.667Z,14.85
2018-12-21T05:19:11.964Z,14.50
2018-12-21T05:21:38.231Z,15.03
2018-12-21T05:24:04.499Z,15.28
2018-12-21T05:26:30.787Z,14.33
2018-12-21T05:28:57.091Z,14.68
2018-12-21T05:31:28.312Z,14.98
2018-12-21T05:33:51.636Z,14.35
2018-12-21T05:36:17.928Z,13.03
2018-12-21T05:38:44.200Z,16.32
2018-12-21T05:41:10.447Z,16.05
2018-12-21T05:43:36.736Z,14.90
2018-12-21T05:46:03.049Z,16.70
2018-12-21T05:48:29.312Z,14.63
2018-12-21T05:50:55.598Z,14.45
2018-12-21T05:53:21.910Z,15.60
2018-12-21T05:55:48.167Z,14.90
2018-12-21T05:58:14.435Z,15.28
2018-12-21T06:00:40.704Z,15.60
2018-12-21T06:03:07.001Z,16.73
2018-12-21T06:05:33.284Z,15.20
2018-12-21T06:07:59.533Z,15.23
2018-12-21T06:10:25.778Z,15.23
2018-12-21T06:12:52.084Z,14.30
2018-12-21T06:15:18.326Z,15.18
2018-12-21T06:17:44.611Z,16.17
2018-12-21T06:20:10.893Z,15.85
2018-12-21T06:22:37.155Z,16.60
2018-12-21T06:25:03.963Z,17.50
2018-12-21T06:27:30.216Z,17.92
2018-12-21T06:29:56.488Z,16.50
2018-12-21T06:32:22.716Z,16.80
2018-12-21T06:34:48.963Z,16.77
2018-12-21T06:37:15.364Z,15.50
2018-12-21T06:39:41.618Z,16.30
2018-12-21T06:42:07.886Z,15.88
2018-12-21T06:44:34.152Z,16.30
2018-12-21T06:47:00.442Z,15.00
2018-12-21T06:49:26.721Z,14.87
2018-12-21T06:51:52.976Z,13.68
2018-12-21T06:54:19.316Z,14.80
2018-12-21T06:56:45.636Z,15.23
2018-12-21T06:59:11.940Z,15.00
2018-12-21T07:01:38.242Z,17.10
2018-12-21T07:04:04.524Z,14.25
2018-12-21T07:06:30.826Z,13.65
2018-12-21T07:08:57.145Z,13.25
2018-12-21T07:11:23.419Z,12.78
2018-12-21T07:13:49.739Z,13.48
2018-12-21T07:16:16.020Z,13.62
2018-12-21T07:18:42.441Z,12.18
2018-12-21T07:21:08.760Z,13.50
2018-12-21T07:23:35.076Z,14.00
2018-12-21T07:26:01.388Z,14.13
2018-12-21T07:28:27.663Z,13.75
2018-12-21T07:30:53.931Z,13.00
2018-12-21T07:33:20.247Z,13.55
2018-12-21T07:35:46.536Z,13.70
2018-12-21T07:38:12.894Z,13.88
2018-12-21T07:40:39.207Z,12.88
2018-12-21T07:43:05.535Z,12.95
2018-12-21T07:45:31.935Z,14.10
2018-12-21T07:47:58.252Z,13.38
2018-12-21T07:50:24.571Z,13.05
2018-12-21T07:52:50.848Z,13.50
2018-12-21T07:55:17.163Z,13.28
2018-12-21T07:57:43.446Z,13.28
2018-12-21T08:00:09.842Z,11.78
2018-12-21T08:02:36.158Z,11.97
2018-12-21T08:05:03.391Z,13.08
2018-12-21T08:07:29.646Z,13.25
2018-12-21T08:09:55.965Z,12.78
2018-12-21T08:12:22.279Z,13.10
2018-12-21T08:14:48.595Z,13.83
2018-12-21T08:17:14.883Z,14.45
2018-12-21T08:19:41.186Z,15.85
2018-12-21T08:22:07.494Z,16.65
2018-12-21T08:24:33.779Z,15.23
2018-12-21T08:27:01.127Z,13.48
2018-12-21T08:29:30.927Z,14.35
2018-12-21T08:31:57.230Z,15.18
2018-12-21T08:34:23.506Z,14.18
2018-12-21T08:36:49.781Z,15.53
2018-12-21T08:39:16.077Z,14.63
2018-12-21T08:41:42.357Z,14.78
2018-12-21T08:44:08.610Z,15.83
2018-12-21T08:46:34.877Z,14.85
2018-12-21T08:49:01.163Z,14.15
2018-12-21T08:51:27.548Z,14.80
2018-12-21T08:53:53.807Z,14.50
2018-12-21T08:56:20.075Z,15.20
2018-12-21T08:58:46.396Z,14.00
2018-12-21T09:01:12.684Z,13.98
2018-12-21T09:03:38.962Z,15.93
2018-12-21T09:06:05.277Z,14.83
2018-12-21T09:08:31.571Z,14.50
2018-12-21T09:10:57.896Z,13.43
2018-12-21T09:13:24.202Z,14.07
2018-12-21T09:15:50.471Z,13.90
2018-12-21T09:18:16.772Z,14.80
2018-12-21T09:20:43.045Z,14.05
2018-12-21T09:23:09.323Z,15.78
2018-12-21T09:25:35.604Z,14.60
2018-12-21T09:28:01.926Z,14.98
2018-12-21T09:30:28.286Z,13.90
2018-12-21T09:32:54.588Z,15.60
2018-12-21T09:35:20.883Z,14.55
2018-12-21T09:37:47.156Z,13.98
2018-12-21T09:40:13.451Z,13.45
2018-12-21T09:42:39.842Z,15.00
2018-12-21T09:45:06.346Z,14.07
2018-12-21T09:47:32.607Z,13.45
2018-12-21T09:49:58.854Z,14.15
2018-12-21T09:52:25.102Z,15.70
2018-12-21T09:54:51.372Z,13.88
2018-12-21T09:57:17.614Z,13.95
2018-12-21T09:59:43.897Z,14.87
2018-12-21T10:02:10.244Z,14.45
2018-12-21T10:04:36.510Z,14.18
2018-12-21T10:07:02.775Z,12.90
2018-12-21T10:09:29.091Z,12.75
2018-12-21T10:11:55.347Z,11.22
2018-12-21T10:14:21.615Z,11.90
2018-12-21T10:16:47.886Z,10.88
2018-12-21T10:19:14.156Z,10.80
2018-12-21T10:21:40.426Z,11.68
2018-12-21T10:24:06.722Z,10.93
2018-12-21T10:26:32.980Z,10.68
2018-12-21T10:28:59.255Z,10.60
2018-12-21T10:31:25.550Z,11.15
2018-12-21T10:33:51.825Z,10.53
2018-12-21T10:36:18.127Z,9.93
2018-12-21T10:38:44.411Z,11.08
2018-12-21T10:41:10.703Z,10.58
2018-12-21T10:43:36.979Z,10.18
2018-12-21T10:46:03.225Z,10.88
2018-12-21T10:48:29.511Z,11.53
2018-12-21T10:50:55.813Z,11.05
2018-12-21T10:53:22.132Z,9.90
2018-12-21T10:55:48.499Z,11.93
2018-12-21T10:58:14.748Z,11.28
2018-12-21T11:00:41.024Z,10.95
2018-12-21T11:03:07.316Z,10.25
2018-12-21T11:05:33.575Z,10.20
2018-12-21T11:07:59.884Z,9.33
2018-12-21T11:10:26.140Z,11.30
2018-12-21T11:12:53.275Z,10.60
2018-12-21T11:15:19.536Z,10.90
2018-12-21T11:17:45.822Z,10.53
2018-12-21T11:20:12.125Z,11.53
2018-12-21T11:22:38.392Z,10.93
2018-12-21T11:25:08.017Z,11.45
2018-12-21T11:27:34.282Z,10.80
2018-12-21T11:30:00.572Z,11.73
2018-12-21T11:32:26.904Z,11.80
2018-12-21T11:34:54.929Z,11.93
2018-12-21T11:37:21.500Z,11.48
2018-12-21T11:39:47.808Z,11.48
2018-12-21T11:42:14.091Z,10.68
2018-12-21T11:44:40.472Z,10.90
2018-12-21T11:47:06.772Z,10.45
2018-12-21T11:49:33.019Z,11.12
2018-12-21T11:51:59.283Z,10.98
2018-12-21T11:54:25.531Z,11.33
2018-12-21T11:56:51.847Z,10.48
2018-12-21T11:59:18.184Z,10.80
2018-12-21T12:01:44.468Z,8.63
2018-12-21T12:04:10.766Z,9.48
2018-12-21T12:06:37.160Z,8.43
2018-12-21T12:09:06.321Z,7.50
2018-12-21T12:11:32.966Z,7.90
2018-12-21T12:13:59.231Z,9.53
2018-12-21T12:16:25.544Z,9.03
2018-12-21T12:18:51.802Z,9.95
2018-12-21T12:21:18.072Z,23.65
2018-12-21T12:23:44.386Z,13.35
2018-12-21T12:26:10.643Z,8.20
2018-12-21T12:28:36.923Z,7.22
2018-12-21T12:31:03.330Z,8.35
2018-12-21T12:33:29.774Z,9.05
2018-12-21T12:35:56.063Z,7.60
2018-12-21T12:38:22.341Z,6.67
2018-12-21T12:40:48.612Z,6.87
2018-12-21T12:43:14.885Z,7.10
2018-12-21T12:45:41.159Z,11.93
2018-12-21T12:48:07.440Z,7.65
2018-12-21T12:50:33.721Z,7.30
2018-12-21T12:53:06.954Z,8.05
2018-12-21T12:55:33.289Z,7.22
2018-12-21T12:57:59.539Z,8.30
2018-12-21T13:00:25.800Z,6.85
2018-12-21T13:02:52.412Z,8.15
2018-12-21T13:05:18.700Z,7.87
2018-12-21T13:07:45.037Z,8.65
2018-12-21T13:10:11.336Z,8.40
2018-12-21T13:12:37.600Z,8.30
2018-12-21T13:15:06.279Z,7.15
2018-12-21T13:17:32.539Z,10.15
2018-12-21T13:19:58.790Z,9.00
2018-12-21T13:22:25.060Z,13.03
2018-12-21T13:24:51.337Z,11.90
2018-12-21T13:27:17.741Z,10.25
2018-12-21T13:29:44.161Z,8.80
2018-12-21T13:32:10.419Z,8.28
2018-12-21T13:34:36.683Z,8.55
2018-12-21T13:37:02.969Z,8.95
2018-12-21T13:39:29.230Z,10.48
2018-12-21T13:41:55.488Z,17.60
2018-12-21T13:44:21.759Z,11.22
2018-12-21T13:46:48.006Z,10.68
2018-12-21T13:49:14.301Z,11.50
2018-12-21T13:51:40.547Z,12.00
2018-12-21T13:54:06.822Z,9.98
2018-12-21T13:56:33.087Z,10.10
2018-12-21T13:58:59.347Z,10.00
2018-12-21T14:01:25.591Z,9.68
2018-12-21T14:03:51.845Z,8.58
2018-12-21T14:06:18.131Z,8.18
2018-12-21T14:08:44.374Z,10.25
2018-12-21T14:11:10.652Z,10.35
2018-12-21T14:13:36.945Z,14.20
2018-12-21T14:16:03.197Z,13.30
2018-12-21T14:18:29.439Z,11.48
2018-12-21T14:20:55.837Z,10.78
2018-12-21T14:23:22.080Z,10.80
2018-12-21T14:25:48.362Z,14.03
2018-12-21T14:28:14.636Z,10.03
2018-12-21T14:30:40.919Z,7.22
2018-12-21T14:33:07.195Z,7.70
2018-12-21T14:35:33.445Z,10.13
2018-12-21T14:37:59.727Z,9.78
2018-12-21T14:40:25.971Z,10.20
2018-12-21T14:42:52.241Z,7.90
2018-12-21T14:45:18.487Z,10.90
2018-12-21T14:47:44.738Z,9.10
2018-12-21T14:50:11.235Z,9.43
2018-12-21T14:52:37.478Z,10.03
2018-12-21T14:55:05.209Z,9.35
2018-12-21T14:57:31.469Z,9.55
2018-12-21T14:59:57.754Z,10.10
2018-12-21T15:02:24.030Z,10.55
2018-12-21T15:04:50.298Z,10.82
2018-12-21T15:07:16.554Z,9.73
2018-12-21T15:09:42.836Z,11.43
2018-12-21T15:12:09.087Z,10.53
2018-12-21T15:14:35.387Z,10.00
2018-12-21T15:17:01.658Z,9.78
2018-12-21T15:19:28.085Z,10.15
2018-12-21T15:22:01.348Z,10.93
2018-12-21T15:24:27.632Z,9.10
2018-12-21T15:26:53.882Z,10.15
2018-12-21T15:29:20.146Z,9.50
2018-12-21T15:31:46.414Z,9.98
2018-12-21T15:34:12.676Z,9.53
2018-12-21T15:36:38.955Z,10.80
2018-12-21T15:39:05.364Z,10.95
2018-12-21T15:41:31.630Z,9.93
2018-12-21T15:43:57.871Z,9.68
2018-12-21T15:46:24.148Z,11.53
2018-12-21T15:48:50.429Z,10.43
2018-12-21T15:51:16.670Z,11.38
2018-12-21T15:53:42.927Z,14.13
2018-12-21T15:56:09.208Z,18.60
2018-12-21T15:58:35.479Z,12.93
2018-12-21T16:01:01.732Z,12.80
2018-12-21T16:03:28.007Z,11.68
2018-12-21T16:05:54.290Z,12.18
2018-12-21T16:08:20.726Z,12.58
2018-12-21T16:10:47.064Z,13.88
2018-12-21T16:13:13.314Z,12.82
2018-12-21T16:15:39.576Z,12.25
2018-12-21T16:18:05.839Z,14.25
2018-12-21T16:20:32.223Z,12.37
2018-12-21T16:22:58.518Z,12.15
2018-12-21T16:25:24.800Z,12.45
2018-12-21T16:27:51.069Z,13.93
2018-12-21T16:30:17.350Z,13.10
2018-12-21T16:32:43.596Z,11.60
2018-12-21T16:35:09.851Z,13.68
2018-12-21T16:37:36.243Z,11.48
2018-12-21T16:40:03.841Z,12.20
2018-12-21T16:42:30.096Z,13.60
2018-12-21T16:44:57.074Z,11.88
2018-12-21T16:47:23.358Z,13.48
2018-12-21T16:49:49.696Z,13.03
2018-12-21T16:52:15.998Z,13.15
2018-12-21T16:54:42.376Z,12.93
2018-12-21T16:57:08.624Z,12.78
2018-12-21T16:59:34.957Z,14.33
2018-12-21T17:02:01.260Z,14.93
2018-12-21T17:04:27.517Z,12.45
2018-12-21T17:06:53.818Z,13.03
2018-12-21T17:09:20.225Z,13.70
2018-12-21T17:11:46.469Z,14.20
2018-12-21T17:14:12.762Z,13.60
2018-12-21T17:16:39.041Z,13.85
2018-12-21T17:19:06.543Z,14.53
2018-12-21T17:21:32.903Z,12.70
2018-12-21T17:23:59.165Z,12.90
2018-12-21T17:26:25.463Z,14.20
2018-12-21T17:28:52.419Z,13.98
2018-12-21T17:31:18.791Z,11.57
2018-12-21T17:33:45.059Z,13.00
2018-12-21T17:36:11.343Z,14.15
2018-12-21T17:38:37.594Z,14.03
2018-12-21T17:41:03.870Z,12.90
2018-12-21T17:43:37.021Z,12.47
2018-12-21T17:46:03.411Z,14.98
2018-12-21T17:48:29.835Z,13.53
2018-12-21T17:50:56.084Z,13.95
2018-12-21T17:53:22.354Z,14.47
2018-12-21T17:55:48.621Z,14.13
2018-12-21T17:58:14.952Z,22.95
2018-12-21T18:00:41.240Z,17.32
2018-12-21T18:03:08.133Z,14.45
2018-12-21T18:05:34.428Z,14.90
2018-12-21T18:08:01.140Z,13.95
2018-12-21T18:10:27.395Z,14.75
2018-12-21T18:12:53.740Z,10.68
2018-12-21T18:15:20.108Z,26.37
2018-12-21T18:17:46.385Z,1.70
2018-12-21T18:20:12.918Z,1.67
2018-12-21T18:22:39.177Z,1.37
2018-12-21T18:25:10.160Z,1.20
2018-12-21T18:27:36.429Z,1.00
2018-12-21T18:30:09.780Z,1.10
2018-12-21T18:32:36.156Z,1.22
2018-12-21T18:35:04.148Z,1.57
2018-12-21T18:37:30.494Z,1.32
2018-12-21T18:39:56.787Z,1.60
2018-12-21T18:42:23.076Z,1.15
2018-12-21T18:44:49.443Z,1.40
2018-12-21T18:47:15.743Z,2.00
2018-12-21T18:49:42.039Z,2.37
2018-12-21T18:52:08.301Z,1.70
2018-12-21T18:54:34.578Z,1.70
2018-12-21T18:57:00.835Z,1.20
2018-12-21T18:59:27.107Z,1.42
2018-12-21T19:01:53.372Z,1.30
2018-12-21T19:04:19.639Z,1.13
2018-12-21T19:06:45.911Z,1.00
2018-12-21T19:09:12.199Z,1.10
2018-12-21T19:11:38.462Z,1.43
2018-12-21T19:14:04.759Z,1.27
2018-12-21T19:16:31.004Z,1.00
2018-12-21T19:18:57.312Z,1.40
2018-12-21T19:21:23.616Z,0.95
2018-12-21T19:23:49.850Z,1.20
2018-12-21T19:26:16.151Z,1.10
2018-12-21T19:28:42.451Z,1.10
2018-12-21T19:31:08.711Z,1.13
2018-12-21T19:33:34.979Z,1.07
2018-12-21T19:36:01.267Z,1.30
2018-12-21T19:38:27.527Z,1.20
2018-12-21T19:40:53.815Z,1.00
2018-12-21T19:43:27.993Z,1.03
2018-12-21T19:45:48.355Z,1.10
2018-12-21T19:48:14.603Z,0.90
2018-12-21T19:50:40.870Z,1.10
2018-12-21T19:53:07.135Z,1.00
2018-12-21T19:55:37.471Z,1.17
2018-12-21T19:58:03.752Z,1.30
2018-12-21T20:00:29.987Z,1.33
2018-12-21T20:02:56.283Z,0.93
2018-12-21T20:05:22.555Z,0.93
2018-12-21T20:07:48.820Z,1.27
2018-12-21T20:10:15.103Z,1.30
2018-12-21T20:12:41.358Z,0.90
2018-12-21T20:15:07.635Z,1.10
2018-12-21T20:17:33.886Z,1.20
2018-12-21T20:20:00.297Z,1.60
2018-12-21T20:22:26.547Z,1.20
2018-12-21T20:24:52.823Z,1.30
2018-12-21T20:27:19.089Z,1.20
2018-12-21T20:29:45.354Z,1.03
2018-12-21T20:32:11.622Z,1.10
2018-12-21T20:34:37.890Z,1.10
2018-12-21T20:37:04.176Z,1.27
2018-12-21T20:39:30.475Z,1.17
2018-12-21T20:41:56.765Z,1.30
2018-12-21T20:44:23.124Z,1.17
2018-12-21T20:46:49.428Z,1.10
2018-12-21T20:49:15.671Z,1.00
2018-12-21T20:51:42.089Z,1.10
2018-12-21T20:54:08.375Z,1.32
2018-12-21T20:56:34.619Z,1.17
2018-12-21T20:59:01.654Z,1.15
2018-12-21T21:01:27.920Z,1.70
2018-12-21T21:03:54.167Z,2.12
2018-12-21T21:06:20.457Z,1.27
2018-12-21T21:08:46.711Z,1.30
2018-12-21T21:11:13.011Z,2.47
2018-12-21T21:13:39.276Z,1.10
2018-12-21T21:16:05.587Z,1.20
2018-12-21T21:18:31.839Z,1.20
2018-12-21T21:20:58.107Z,1.22
2018-12-21T21:23:24.403Z,1.10
2018-12-21T21:25:50.663Z,0.93
2018-12-21T21:28:16.947Z,1.17
2018-12-21T21:30:43.240Z,1.00
2018-12-21T21:33:09.479Z,1.20
2018-12-21T21:35:35.774Z,1.10
2018-12-21T21:38:09.034Z,1.20
2018-12-21T21:40:35.313Z,1.00
2018-12-21T21:43:01.587Z,1.30
2018-12-21T21:45:27.859Z,0.95
2018-12-21T21:47:54.280Z,0.95
2018-12-21T21:50:20.538Z,1.40
2018-12-21T21:52:46.828Z,2.00
2018-12-21T21:55:13.109Z,1.03
2018-12-21T21:57:46.318Z,1.20
2018-12-21T22:00:19.613Z,1.00
2018-12-21T22:02:45.997Z,1.00
2018-12-21T22:05:12.273Z,0.90
2018-12-21T22:07:45.839Z,1.03
2018-12-21T22:10:12.983Z,1.53
2018-12-21T22:12:39.273Z,1.40
2018-12-21T22:15:06.780Z,1.27
2018-12-21T22:17:33.182Z,1.30
2018-12-21T22:19:59.435Z,1.40
2018-12-21T22:22:25.710Z,1.40
2018-12-21T22:24:51.990Z,1.47
2018-12-21T22:27:21.455Z,1.32
2018-12-21T22:29:48.373Z,1.10
2018-12-21T22:32:14.648Z,1.30
2018-12-21T22:34:40.919Z,1.37
2018-12-21T22:37:07.191Z,1.27
2018-12-21T22:39:33.709Z,1.10
2018-12-21T22:42:00.478Z,0.80
2018-12-21T22:44:26.747Z,1.00
2018-12-21T22:46:53.127Z,1.20
2018-12-21T22:49:19.421Z,2.42
2018-12-21T22:51:46.599Z,2.10
2018-12-21T22:54:13.073Z,1.55
2018-12-21T22:56:39.342Z,1.50
2018-12-21T22:59:05.589Z,1.22
2018-12-21T23:01:31.883Z,1.75
2018-12-21T23:03:58.184Z,1.50
2018-12-21T23:06:24.457Z,1.63
2018-12-21T23:08:50.716Z,1.07
2018-12-21T23:11:17.000Z,1.40
2018-12-21T23:13:43.267Z,2.00
2018-12-21T23:16:09.519Z,1.25
2018-12-21T23:18:35.815Z,1.30
2018-12-21T23:21:02.095Z,1.20
2018-12-21T23:23:28.406Z,1.30
2018-12-21T23:25:54.776Z,1.20
2018-12-21T23:28:21.010Z,1.42
2018-12-21T23:30:47.238Z,1.10
2018-12-21T23:33:13.697Z,1.00
2018-12-21T23:35:39.952Z,0.90
2018-12-21T23:38:06.211Z,1.32
2018-12-21T23:40:32.491Z,1.23
2018-12-21T23:42:58.766Z,0.90
2018-12-21T23:45:25.027Z,1.00
2018-12-21T23:47:51.299Z,1.20
2018-12-21T23:50:17.559Z,1.20
2018-12-21T23:52:43.896Z,0.90
2018-12-21T23:55:10.194Z,1.10
2018-12-21T23:57:36.456Z,1.00
